sensor_id;sensor_type;location;lat;lon;timestamp;P1;durP1;ratioP1;P2;durP2;ratioP2
59770;SDS011;45649;53.014;6.600;2022-08-19T00:00:34;4.17;;;3.87;;
59770;SDS011;45649;53.014;6.600;2022-08-19T00:03:01;4.40;;;4.00;;
59770;SDS011;45649;53.014;6.600;2022-08-19T00:05:27;4.30;;;4.00;;
59770;SDS011;45649;53.014;6.600;2022-08-19T00:07:53;3.77;;;3.47;;
59770;SDS011;45649;53.014;6.600;2022-08-19T00:10:19;4.93;;;4.43;;
59770;SDS011;45649;53.014;6.600;2022-08-19T00:12:45;4.50;;;4.00;;
59770;SDS011;45649;53.014;6.600;2022-08-19T00:15:12;5.10;;;4.60;;
59770;SDS011;45649;53.014;6.600;2022-08-19T00:17:41;4.73;;;4.20;;
59770;SDS011;45649;53.014;6.600;2022-08-19T00:20:09;4.00;;;3.67;;
59770;SDS011;45649;53.014;6.600;2022-08-19T00:22:37;5.03;;;4.33;;
59770;SDS011;45649;53.014;6.600;2022-08-19T00:25:05;5.27;;;3.90;;
59770;SDS011;45649;53.014;6.600;2022-08-19T00:27:31;3.70;;;3.40;;
59770;SDS011;45649;53.014;6.600;2022-08-19T00:29:57;2.80;;;2.60;;
59770;SDS011;45649;53.014;6.600;2022-08-19T00:32:24;3.10;;;2.90;;
59770;SDS011;45649;53.014;6.600;2022-08-19T00:34:51;3.53;;;3.23;;
59770;SDS011;45649;53.014;6.600;2022-08-19T00:37:18;3.23;;;3.03;;
59770;SDS011;45649;53.014;6.600;2022-08-19T00:39:48;4.13;;;3.80;;
59770;SDS011;45649;53.014;6.600;2022-08-19T00:42:16;4.60;;;4.20;;
59770;SDS011;45649;53.014;6.600;2022-08-19T00:44:42;4.83;;;4.43;;
59770;SDS011;45649;53.014;6.600;2022-08-19T00:47:08;5.13;;;4.73;;
59770;SDS011;45649;53.014;6.600;2022-08-19T00:49:35;4.87;;;4.33;;
59770;SDS011;45649;53.014;6.600;2022-08-19T00:52:27;5.10;;;4.60;;
59770;SDS011;45649;53.014;6.600;2022-08-19T00:54:58;4.53;;;4.13;;
59770;SDS011;45649;53.014;6.600;2022-08-19T00:57:35;4.93;;;4.43;;
59770;SDS011;45649;53.014;6.600;2022-08-19T01:00:08;5.63;;;5.00;;
59770;SDS011;45649;53.014;6.600;2022-08-19T01:02:37;4.77;;;4.33;;
59770;SDS011;45649;53.014;6.600;2022-08-19T01:05:05;4.90;;;4.50;;
59770;SDS011;45649;53.014;6.600;2022-08-19T01:07:35;4.93;;;4.50;;
59770;SDS011;45649;53.014;6.600;2022-08-19T01:10:03;5.13;;;4.70;;
59770;SDS011;45649;53.014;6.600;2022-08-19T01:12:31;5.70;;;4.87;;
59770;SDS011;45649;53.014;6.600;2022-08-19T01:14:57;5.73;;;5.17;;
59770;SDS011;45649;53.014;6.600;2022-08-19T01:17:24;5.57;;;5.07;;
59770;SDS011;45649;53.014;6.600;2022-08-19T01:19:50;5.50;;;4.80;;
59770;SDS011;45649;53.014;6.600;2022-08-19T01:22:19;4.80;;;4.50;;
59770;SDS011;45649;53.014;6.600;2022-08-19T01:25:06;3.77;;;3.47;;
59770;SDS011;45649;53.014;6.600;2022-08-19T01:27:39;3.03;;;2.83;;
59770;SDS011;45649;53.014;6.600;2022-08-19T01:30:06;2.67;;;2.57;;
59770;SDS011;45649;53.014;6.600;2022-08-19T01:32:33;3.77;;;3.30;;
59770;SDS011;45649;53.014;6.600;2022-08-19T01:35:00;4.37;;;4.00;;
59770;SDS011;45649;53.014;6.600;2022-08-19T01:37:27;4.40;;;4.10;;
59770;SDS011;45649;53.014;6.600;2022-08-19T01:39:54;4.53;;;4.13;;
59770;SDS011;45649;53.014;6.600;2022-08-19T01:42:20;4.20;;;3.90;;
59770;SDS011;45649;53.014;6.600;2022-08-19T01:44:47;3.63;;;3.43;;
59770;SDS011;45649;53.014;6.600;2022-08-19T01:47:13;3.30;;;3.10;;
59770;SDS011;45649;53.014;6.600;2022-08-19T01:49:39;3.97;;;3.50;;
59770;SDS011;45649;53.014;6.600;2022-08-19T01:52:05;4.10;;;3.70;;
59770;SDS011;45649;53.014;6.600;2022-08-19T01:54:31;4.20;;;3.80;;
59770;SDS011;45649;53.014;6.600;2022-08-19T01:56:59;4.03;;;3.73;;
59770;SDS011;45649;53.014;6.600;2022-08-19T01:59:28;3.87;;;3.53;;
59770;SDS011;45649;53.014;6.600;2022-08-19T02:01:55;4.73;;;3.60;;
59770;SDS011;45649;53.014;6.600;2022-08-19T02:04:21;3.90;;;3.60;;
59770;SDS011;45649;53.014;6.600;2022-08-19T02:06:48;3.90;;;3.60;;
59770;SDS011;45649;53.014;6.600;2022-08-19T02:09:14;3.37;;;3.10;;
59770;SDS011;45649;53.014;6.600;2022-08-19T02:11:39;4.03;;;3.73;;
59770;SDS011;45649;53.014;6.600;2022-08-19T02:14:07;5.67;;;3.93;;
59770;SDS011;45649;53.014;6.600;2022-08-19T02:16:33;3.43;;;3.23;;
59770;SDS011;45649;53.014;6.600;2022-08-19T02:19:00;2.80;;;2.60;;
59770;SDS011;45649;53.014;6.600;2022-08-19T02:21:26;2.93;;;2.63;;
59770;SDS011;45649;53.014;6.600;2022-08-19T02:23:53;2.90;;;2.60;;
59770;SDS011;45649;53.014;6.600;2022-08-19T02:26:18;3.40;;;3.10;;
59770;SDS011;45649;53.014;6.600;2022-08-19T02:28:44;2.80;;;2.60;;
59770;SDS011;45649;53.014;6.600;2022-08-19T02:31:16;4.63;;;3.33;;
59770;SDS011;45649;53.014;6.600;2022-08-19T02:33:44;2.87;;;2.67;;
59770;SDS011;45649;53.014;6.600;2022-08-19T02:36:11;4.03;;;2.73;;
59770;SDS011;45649;53.014;6.600;2022-08-19T02:38:39;2.63;;;2.43;;
59770;SDS011;45649;53.014;6.600;2022-08-19T02:41:07;2.83;;;2.60;;
59770;SDS011;45649;53.014;6.600;2022-08-19T02:43:36;3.43;;;2.73;;
59770;SDS011;45649;53.014;6.600;2022-08-19T02:46:20;3.20;;;3.00;;
59770;SDS011;45649;53.014;6.600;2022-08-19T02:48:48;3.20;;;3.00;;
59770;SDS011;45649;53.014;6.600;2022-08-19T02:51:20;3.40;;;3.20;;
59770;SDS011;45649;53.014;6.600;2022-08-19T02:53:47;3.63;;;3.43;;
59770;SDS011;45649;53.014;6.600;2022-08-19T02:56:13;3.30;;;3.00;;
59770;SDS011;45649;53.014;6.600;2022-08-19T02:58:39;3.67;;;3.37;;
59770;SDS011;45649;53.014;6.600;2022-08-19T03:01:05;3.30;;;3.00;;
59770;SDS011;45649;53.014;6.600;2022-08-19T03:03:31;3.60;;;3.30;;
59770;SDS011;45649;53.014;6.600;2022-08-19T03:08:35;3.37;;;3.07;;
59770;SDS011;45649;53.014;6.600;2022-08-19T03:11:02;3.63;;;3.37;;
59770;SDS011;45649;53.014;6.600;2022-08-19T03:13:28;4.10;;;3.70;;
59770;SDS011;45649;53.014;6.600;2022-08-19T03:15:54;4.07;;;3.67;;
59770;SDS011;45649;53.014;6.600;2022-08-19T03:18:20;3.27;;;3.07;;
59770;SDS011;45649;53.014;6.600;2022-08-19T03:20:50;3.07;;;2.87;;
59770;SDS011;45649;53.014;6.600;2022-08-19T03:23:21;4.90;;;2.90;;
59770;SDS011;45649;53.014;6.600;2022-08-19T03:25:48;2.87;;;2.70;;
59770;SDS011;45649;53.014;6.600;2022-08-19T03:28:18;4.00;;;3.70;;
59770;SDS011;45649;53.014;6.600;2022-08-19T03:33:25;4.50;;;4.10;;
59770;SDS011;45649;53.014;6.600;2022-08-19T03:36:05;4.20;;;3.80;;
59770;SDS011;45649;53.014;6.600;2022-08-19T03:38:41;4.07;;;3.53;;
59770;SDS011;45649;53.014;6.600;2022-08-19T03:41:10;5.80;;;3.80;;
59770;SDS011;45649;53.014;6.600;2022-08-19T03:43:38;2.90;;;2.70;;
59770;SDS011;45649;53.014;6.600;2022-08-19T03:46:06;4.70;;;3.60;;
59770;SDS011;45649;53.014;6.600;2022-08-19T03:48:34;3.40;;;3.10;;
59770;SDS011;45649;53.014;6.600;2022-08-19T03:51:02;2.90;;;2.60;;
59770;SDS011;45649;53.014;6.600;2022-08-19T03:53:28;2.77;;;2.57;;
59770;SDS011;45649;53.014;6.600;2022-08-19T03:55:56;2.97;;;2.77;;
59770;SDS011;45649;53.014;6.600;2022-08-19T03:58:24;3.43;;;3.20;;
59770;SDS011;45649;53.014;6.600;2022-08-19T04:00:50;3.80;;;3.10;;
59770;SDS011;45649;53.014;6.600;2022-08-19T04:03:16;3.70;;;3.40;;
59770;SDS011;45649;53.014;6.600;2022-08-19T04:05:43;3.43;;;3.13;;
59770;SDS011;45649;53.014;6.600;2022-08-19T04:08:10;4.93;;;3.70;;
59770;SDS011;45649;53.014;6.600;2022-08-19T04:10:36;4.03;;;3.50;;
59770;SDS011;45649;53.014;6.600;2022-08-19T04:13:03;3.70;;;3.30;;
59770;SDS011;45649;53.014;6.600;2022-08-19T04:15:31;3.47;;;3.17;;
59770;SDS011;45649;53.014;6.600;2022-08-19T04:18:03;3.77;;;3.47;;
59770;SDS011;45649;53.014;6.600;2022-08-19T04:20:31;4.27;;;3.80;;
59770;SDS011;45649;53.014;6.600;2022-08-19T04:22:56;4.33;;;4.00;;
59770;SDS011;45649;53.014;6.600;2022-08-19T04:25:22;5.97;;;4.43;;
59770;SDS011;45649;53.014;6.600;2022-08-19T04:27:48;4.60;;;4.20;;
59770;SDS011;45649;53.014;6.600;2022-08-19T04:30:14;4.80;;;4.40;;
59770;SDS011;45649;53.014;6.600;2022-08-19T04:32:39;5.23;;;4.73;;
59770;SDS011;45649;53.014;6.600;2022-08-19T04:35:06;5.30;;;4.80;;
59770;SDS011;45649;53.014;6.600;2022-08-19T04:37:32;5.13;;;4.73;;
59770;SDS011;45649;53.014;6.600;2022-08-19T04:39:58;5.10;;;4.60;;
59770;SDS011;45649;53.014;6.600;2022-08-19T04:42:43;5.60;;;5.10;;
59770;SDS011;45649;53.014;6.600;2022-08-19T04:45:10;5.23;;;4.33;;
59770;SDS011;45649;53.014;6.600;2022-08-19T04:47:39;5.10;;;4.60;;
59770;SDS011;45649;53.014;6.600;2022-08-19T04:50:07;4.50;;;4.10;;
59770;SDS011;45649;53.014;6.600;2022-08-19T04:52:36;4.30;;;3.87;;
59770;SDS011;45649;53.014;6.600;2022-08-19T04:55:02;3.80;;;3.60;;
59770;SDS011;45649;53.014;6.600;2022-08-19T04:57:31;3.50;;;3.20;;
59770;SDS011;45649;53.014;6.600;2022-08-19T04:59:56;3.77;;;3.47;;
59770;SDS011;45649;53.014;6.600;2022-08-19T05:02:22;4.10;;;3.80;;
59770;SDS011;45649;53.014;6.600;2022-08-19T05:04:49;4.67;;;4.20;;
59770;SDS011;45649;53.014;6.600;2022-08-19T05:07:16;5.07;;;4.60;;
59770;SDS011;45649;53.014;6.600;2022-08-19T05:09:42;5.50;;;5.00;;
59770;SDS011;45649;53.014;6.600;2022-08-19T05:12:07;5.40;;;4.90;;
59770;SDS011;45649;53.014;6.600;2022-08-19T05:14:33;5.17;;;4.43;;
59770;SDS011;45649;53.014;6.600;2022-08-19T05:17:01;6.60;;;4.70;;
59770;SDS011;45649;53.014;6.600;2022-08-19T05:19:27;6.20;;;4.50;;
59770;SDS011;45649;53.014;6.600;2022-08-19T05:22:12;6.50;;;5.43;;
59770;SDS011;45649;53.014;6.600;2022-08-19T05:25:18;5.07;;;4.57;;
59770;SDS011;45649;53.014;6.600;2022-08-19T05:27:45;5.70;;;5.13;;
59770;SDS011;45649;53.014;6.600;2022-08-19T05:30:11;6.87;;;5.97;;
59770;SDS011;45649;53.014;6.600;2022-08-19T05:32:38;7.97;;;5.93;;
59770;SDS011;45649;53.014;6.600;2022-08-19T05:35:04;6.67;;;6.07;;
59770;SDS011;45649;53.014;6.600;2022-08-19T05:37:31;8.33;;;6.60;;
59770;SDS011;45649;53.014;6.600;2022-08-19T05:39:56;9.43;;;7.90;;
59770;SDS011;45649;53.014;6.600;2022-08-19T05:42:22;8.87;;;7.73;;
59770;SDS011;45649;53.014;6.600;2022-08-19T05:44:48;10.57;;;8.90;;
59770;SDS011;45649;53.014;6.600;2022-08-19T05:47:15;8.60;;;7.70;;
59770;SDS011;45649;53.014;6.600;2022-08-19T05:49:42;10.53;;;8.30;;
59770;SDS011;45649;53.014;6.600;2022-08-19T05:52:09;8.53;;;7.67;;
59770;SDS011;45649;53.014;6.600;2022-08-19T05:54:37;11.03;;;8.70;;
59770;SDS011;45649;53.014;6.600;2022-08-19T05:57:05;10.20;;;9.10;;
59770;SDS011;45649;53.014;6.600;2022-08-19T05:59:31;12.33;;;9.43;;
59770;SDS011;45649;53.014;6.600;2022-08-19T06:02:00;13.57;;;10.37;;
59770;SDS011;45649;53.014;6.600;2022-08-19T06:04:27;10.97;;;9.13;;
59770;SDS011;45649;53.014;6.600;2022-08-19T06:06:53;11.10;;;9.23;;
59770;SDS011;45649;53.014;6.600;2022-08-19T06:09:20;12.97;;;10.03;;
59770;SDS011;45649;53.014;6.600;2022-08-19T06:11:47;11.70;;;9.67;;
59770;SDS011;45649;53.014;6.600;2022-08-19T06:14:19;12.80;;;10.57;;
59770;SDS011;45649;53.014;6.600;2022-08-19T06:16:49;9.90;;;8.90;;
59770;SDS011;45649;53.014;6.600;2022-08-19T06:19:20;12.03;;;9.13;;
59770;SDS011;45649;53.014;6.600;2022-08-19T06:21:49;13.23;;;9.90;;
59770;SDS011;45649;53.014;6.600;2022-08-19T06:24:18;11.03;;;9.20;;
59770;SDS011;45649;53.014;6.600;2022-08-19T06:26:47;12.80;;;9.83;;
59770;SDS011;45649;53.014;6.600;2022-08-19T06:29:14;10.93;;;8.63;;
59770;SDS011;45649;53.014;6.600;2022-08-19T06:31:42;11.57;;;9.17;;
59770;SDS011;45649;53.014;6.600;2022-08-19T06:34:10;13.30;;;9.67;;
59770;SDS011;45649;53.014;6.600;2022-08-19T06:36:40;11.63;;;9.10;;
59770;SDS011;45649;53.014;6.600;2022-08-19T06:39:11;11.17;;;9.10;;
59770;SDS011;45649;53.014;6.600;2022-08-19T06:41:43;8.27;;;7.13;;
59770;SDS011;45649;53.014;6.600;2022-08-19T06:44:10;7.57;;;6.77;;
59770;SDS011;45649;53.014;6.600;2022-08-19T06:46:37;11.55;;;10.30;;
59770;SDS011;45649;53.014;6.600;2022-08-19T06:49:04;9.97;;;7.80;;
59770;SDS011;45649;53.014;6.600;2022-08-19T06:51:32;9.47;;;8.27;;
59770;SDS011;45649;53.014;6.600;2022-08-19T06:53:58;10.30;;;8.63;;
59770;SDS011;45649;53.014;6.600;2022-08-19T06:56:26;10.30;;;9.30;;
59770;SDS011;45649;53.014;6.600;2022-08-19T06:58:59;9.77;;;8.13;;
59770;SDS011;45649;53.014;6.600;2022-08-19T07:01:50;12.23;;;8.83;;
59770;SDS011;45649;53.014;6.600;2022-08-19T07:04:18;9.67;;;8.57;;
59770;SDS011;45649;53.014;6.600;2022-08-19T07:06:46;10.67;;;9.10;;
59770;SDS011;45649;53.014;6.600;2022-08-19T07:09:14;11.80;;;8.57;;
59770;SDS011;45649;53.014;6.600;2022-08-19T07:11:45;9.50;;;6.93;;
59770;SDS011;45649;53.014;6.600;2022-08-19T07:14:12;8.53;;;7.63;;
59770;SDS011;45649;53.014;6.600;2022-08-19T07:16:40;8.97;;;8.10;;
59770;SDS011;45649;53.014;6.600;2022-08-19T07:19:06;9.03;;;8.13;;
59770;SDS011;45649;53.014;6.600;2022-08-19T07:21:32;12.47;;;9.27;;
59770;SDS011;45649;53.014;6.600;2022-08-19T07:23:58;11.90;;;8.37;;
59770;SDS011;45649;53.014;6.600;2022-08-19T07:26:29;9.73;;;8.70;;
59770;SDS011;45649;53.014;6.600;2022-08-19T07:28:57;8.67;;;7.70;;
59770;SDS011;45649;53.014;6.600;2022-08-19T07:31:25;11.63;;;8.73;;
59770;SDS011;45649;53.014;6.600;2022-08-19T07:33:52;10.67;;;8.83;;
59770;SDS011;45649;53.014;6.600;2022-08-19T07:36:25;8.90;;;8.00;;
59770;SDS011;45649;53.014;6.600;2022-08-19T07:38:56;8.50;;;7.70;;
59770;SDS011;45649;53.014;6.600;2022-08-19T07:41:22;7.40;;;6.20;;
59770;SDS011;45649;53.014;6.600;2022-08-19T07:43:50;10.53;;;9.03;;
59770;SDS011;45649;53.014;6.600;2022-08-19T07:46:17;10.67;;;8.73;;
59770;SDS011;45649;53.014;6.600;2022-08-19T07:48:45;9.93;;;8.47;;
59770;SDS011;45649;53.014;6.600;2022-08-19T07:51:14;9.27;;;7.53;;
59770;SDS011;45649;53.014;6.600;2022-08-19T07:53:41;8.73;;;7.83;;
59770;SDS011;45649;53.014;6.600;2022-08-19T07:56:08;8.50;;;7.70;;
59770;SDS011;45649;53.014;6.600;2022-08-19T07:58:35;9.47;;;8.47;;
59770;SDS011;45649;53.014;6.600;2022-08-19T08:01:04;10.37;;;7.87;;
59770;SDS011;45649;53.014;6.600;2022-08-19T08:03:30;7.17;;;6.53;;
59770;SDS011;45649;53.014;6.600;2022-08-19T08:06:16;8.57;;;7.73;;
59770;SDS011;45649;53.014;6.600;2022-08-19T08:09:02;10.40;;;7.50;;
59770;SDS011;45649;53.014;6.600;2022-08-19T08:11:48;8.03;;;7.23;;
59770;SDS011;45649;53.014;6.600;2022-08-19T08:14:21;8.30;;;7.30;;
59770;SDS011;45649;53.014;6.600;2022-08-19T08:16:53;9.03;;;7.03;;
59770;SDS011;45649;53.014;6.600;2022-08-19T08:19:19;8.43;;;7.53;;
59770;SDS011;45649;53.014;6.600;2022-08-19T08:21:48;8.87;;;6.47;;
59770;SDS011;45649;53.014;6.600;2022-08-19T08:24:14;8.47;;;7.20;;
59770;SDS011;45649;53.014;6.600;2022-08-19T08:26:41;10.17;;;8.37;;
59770;SDS011;45649;53.014;6.600;2022-08-19T08:29:09;9.07;;;8.17;;
59770;SDS011;45649;53.014;6.600;2022-08-19T08:31:36;9.60;;;8.60;;
59770;SDS011;45649;53.014;6.600;2022-08-19T08:34:03;8.33;;;7.47;;
59770;SDS011;45649;53.014;6.600;2022-08-19T08:36:28;8.30;;;7.40;;
59770;SDS011;45649;53.014;6.600;2022-08-19T08:38:58;8.93;;;8.03;;
59770;SDS011;45649;53.014;6.600;2022-08-19T08:43:59;7.37;;;6.67;;
59770;SDS011;45649;53.014;6.600;2022-08-19T08:51:33;8.47;;;7.33;;
59770;SDS011;45649;53.014;6.600;2022-08-19T08:54:04;8.90;;;8.00;;
59770;SDS011;45649;53.014;6.600;2022-08-19T08:56:32;9.90;;;8.40;;
59770;SDS011;45649;53.014;6.600;2022-08-19T08:59:04;9.17;;;8.20;;
59770;SDS011;45649;53.014;6.600;2022-08-19T09:01:35;10.93;;;9.47;;
59770;SDS011;45649;53.014;6.600;2022-08-19T09:04:05;7.80;;;7.07;;
59770;SDS011;45649;53.014;6.600;2022-08-19T09:09:18;6.33;;;5.83;;
59770;SDS011;45649;53.014;6.600;2022-08-19T09:16:57;5.87;;;5.20;;
59770;SDS011;45649;53.014;6.600;2022-08-19T09:19:24;6.00;;;5.50;;
59770;SDS011;45649;53.014;6.600;2022-08-19T09:21:50;6.43;;;5.83;;
59770;SDS011;45649;53.014;6.600;2022-08-19T09:24:15;6.10;;;5.50;;
59770;SDS011;45649;53.014;6.600;2022-08-19T09:26:41;6.83;;;6.10;;
59770;SDS011;45649;53.014;6.600;2022-08-19T09:29:09;6.67;;;5.93;;
59770;SDS011;45649;53.014;6.600;2022-08-19T09:31:35;5.40;;;5.00;;
59770;SDS011;45649;53.014;6.600;2022-08-19T09:34:02;5.33;;;4.90;;
59770;SDS011;45649;53.014;6.600;2022-08-19T09:36:29;5.53;;;5.13;;
59770;SDS011;45649;53.014;6.600;2022-08-19T09:39:01;5.23;;;4.83;;
59770;SDS011;45649;53.014;6.600;2022-08-19T09:41:31;6.47;;;5.87;;
59770;SDS011;45649;53.014;6.600;2022-08-19T09:43:59;6.57;;;5.87;;
59770;SDS011;45649;53.014;6.600;2022-08-19T09:46:26;6.63;;;6.00;;
59770;SDS011;45649;53.014;6.600;2022-08-19T09:48:59;6.53;;;6.00;;
59770;SDS011;45649;53.014;6.600;2022-08-19T09:51:26;5.83;;;5.23;;
59770;SDS011;45649;53.014;6.600;2022-08-19T09:53:58;5.77;;;5.27;;
59770;SDS011;45649;53.014;6.600;2022-08-19T09:56:26;5.87;;;5.27;;
59770;SDS011;45649;53.014;6.600;2022-08-19T09:58:53;5.93;;;5.40;;
59770;SDS011;45649;53.014;6.600;2022-08-19T10:01:22;7.87;;;7.13;;
59770;SDS011;45649;53.014;6.600;2022-08-19T10:03:52;5.70;;;5.20;;
59770;SDS011;45649;53.014;6.600;2022-08-19T10:06:21;6.03;;;5.47;;
59770;SDS011;45649;53.014;6.600;2022-08-19T10:08:49;5.87;;;5.43;;
59770;SDS011;45649;53.014;6.600;2022-08-19T10:11:17;5.73;;;5.13;;
59770;SDS011;45649;53.014;6.600;2022-08-19T10:13:44;6.30;;;5.70;;
59770;SDS011;45649;53.014;6.600;2022-08-19T10:16:14;5.47;;;5.07;;
59770;SDS011;45649;53.014;6.600;2022-08-19T10:18:41;5.70;;;5.30;;
59770;SDS011;45649;53.014;6.600;2022-08-19T10:21:12;5.57;;;5.07;;
59770;SDS011;45649;53.014;6.600;2022-08-19T10:23:41;6.50;;;5.90;;
59770;SDS011;45649;53.014;6.600;2022-08-19T10:26:10;6.57;;;5.60;;
59770;SDS011;45649;53.014;6.600;2022-08-19T10:28:38;5.50;;;5.10;;
59770;SDS011;45649;53.014;6.600;2022-08-19T10:31:11;6.27;;;5.67;;
59770;SDS011;45649;53.014;6.600;2022-08-19T10:33:40;6.30;;;5.33;;
59770;SDS011;45649;53.014;6.600;2022-08-19T10:36:08;6.93;;;5.30;;
59770;SDS011;45649;53.014;6.600;2022-08-19T10:38:42;6.53;;;5.93;;
59770;SDS011;45649;53.014;6.600;2022-08-19T10:41:15;6.17;;;5.57;;
59770;SDS011;45649;53.014;6.600;2022-08-19T10:43:50;6.30;;;5.70;;
59770;SDS011;45649;53.014;6.600;2022-08-19T10:46:19;6.30;;;5.77;;
59770;SDS011;45649;53.014;6.600;2022-08-19T10:48:46;6.57;;;5.97;;
59770;SDS011;45649;53.014;6.600;2022-08-19T10:51:12;6.72;;;6.13;;
59770;SDS011;45649;53.014;6.600;2022-08-19T10:53:57;5.97;;;5.47;;
59770;SDS011;45649;53.014;6.600;2022-08-19T10:56:23;6.80;;;6.07;;
59770;SDS011;45649;53.014;6.600;2022-08-19T10:59:26;7.10;;;6.40;;
59770;SDS011;45649;53.014;6.600;2022-08-19T11:01:54;6.37;;;5.87;;
59770;SDS011;45649;53.014;6.600;2022-08-19T11:04:24;6.60;;;5.83;;
59770;SDS011;45649;53.014;6.600;2022-08-19T11:06:50;6.77;;;6.07;;
59770;SDS011;45649;53.014;6.600;2022-08-19T11:09:20;5.60;;;5.20;;
59770;SDS011;45649;53.014;6.600;2022-08-19T11:11:51;6.40;;;5.83;;
59770;SDS011;45649;53.014;6.600;2022-08-19T11:14:19;8.00;;;7.20;;
59770;SDS011;45649;53.014;6.600;2022-08-19T11:16:47;6.33;;;5.83;;
59770;SDS011;45649;53.014;6.600;2022-08-19T11:19:13;7.97;;;7.20;;
59770;SDS011;45649;53.014;6.600;2022-08-19T11:21:44;8.17;;;7.37;;
59770;SDS011;45649;53.014;6.600;2022-08-19T11:24:18;6.97;;;6.40;;
59770;SDS011;45649;53.014;6.600;2022-08-19T11:26:48;8.40;;;7.37;;
59770;SDS011;45649;53.014;6.600;2022-08-19T11:29:17;7.13;;;6.43;;
59770;SDS011;45649;53.014;6.600;2022-08-19T11:31:46;7.97;;;7.17;;
59770;SDS011;45649;53.014;6.600;2022-08-19T11:34:18;8.50;;;7.70;;
59770;SDS011;45649;53.014;6.600;2022-08-19T11:36:46;8.33;;;7.47;;
59770;SDS011;45649;53.014;6.600;2022-08-19T11:39:18;10.47;;;8.30;;
59770;SDS011;45649;53.014;6.600;2022-08-19T11:41:45;218.17;;;26.20;;
59770;SDS011;45649;53.014;6.600;2022-08-19T11:44:11;16.00;;;12.10;;
59770;SDS011;45649;53.014;6.600;2022-08-19T11:46:39;10.77;;;9.77;;
59770;SDS011;45649;53.014;6.600;2022-08-19T11:49:06;11.40;;;10.30;;
59770;SDS011;45649;53.014;6.600;2022-08-19T11:51:34;15.97;;;11.67;;
59770;SDS011;45649;53.014;6.600;2022-08-19T11:54:00;12.30;;;11.00;;
59770;SDS011;45649;53.014;6.600;2022-08-19T11:56:26;12.67;;;11.03;;
59770;SDS011;45649;53.014;6.600;2022-08-19T11:58:53;13.40;;;12.20;;
59770;SDS011;45649;53.014;6.600;2022-08-19T12:01:22;14.93;;;13.53;;
59770;SDS011;45649;53.014;6.600;2022-08-19T12:03:50;12.43;;;11.30;;
59770;SDS011;45649;53.014;6.600;2022-08-19T12:06:18;13.43;;;11.77;;
59770;SDS011;45649;53.014;6.600;2022-08-19T12:08:53;11.70;;;10.70;;
59770;SDS011;45649;53.014;6.600;2022-08-19T12:11:20;14.37;;;12.17;;
59770;SDS011;45649;53.014;6.600;2022-08-19T12:13:46;12.73;;;11.53;;
59770;SDS011;45649;53.014;6.600;2022-08-19T12:16:17;13.37;;;12.00;;
59770;SDS011;45649;53.014;6.600;2022-08-19T12:18:44;12.60;;;11.37;;
59770;SDS011;45649;53.014;6.600;2022-08-19T12:21:12;12.77;;;11.43;;
59770;SDS011;45649;53.014;6.600;2022-08-19T12:23:39;11.80;;;10.70;;
59770;SDS011;45649;53.014;6.600;2022-08-19T12:26:06;9.30;;;8.50;;
59770;SDS011;45649;53.014;6.600;2022-08-19T12:28:33;10.10;;;9.20;;
59770;SDS011;45649;53.014;6.600;2022-08-19T12:30:59;8.60;;;7.73;;
59770;SDS011;45649;53.014;6.600;2022-08-19T12:33:25;7.77;;;7.03;;
59770;SDS011;45649;53.014;6.600;2022-08-19T12:35:53;7.50;;;6.90;;
59770;SDS011;45649;53.014;6.600;2022-08-19T12:38:19;7.47;;;6.93;;
59770;SDS011;45649;53.014;6.600;2022-08-19T12:40:45;6.60;;;6.10;;
59770;SDS011;45649;53.014;6.600;2022-08-19T12:43:11;8.17;;;7.43;;
59770;SDS011;45649;53.014;6.600;2022-08-19T12:45:38;6.70;;;6.20;;
59770;SDS011;45649;53.014;6.600;2022-08-19T12:48:04;5.20;;;4.70;;
59770;SDS011;45649;53.014;6.600;2022-08-19T12:50:30;5.20;;;4.20;;
59770;SDS011;45649;53.014;6.600;2022-08-19T12:52:56;4.53;;;4.00;;
59770;SDS011;45649;53.014;6.600;2022-08-19T12:55:23;4.60;;;4.23;;
59770;SDS011;45649;53.014;6.600;2022-08-19T12:57:50;4.57;;;4.27;;
59770;SDS011;45649;53.014;6.600;2022-08-19T13:00:16;5.47;;;4.97;;
59770;SDS011;45649;53.014;6.600;2022-08-19T13:02:46;5.33;;;4.83;;
59770;SDS011;45649;53.014;6.600;2022-08-19T13:05:25;6.27;;;5.70;;
59770;SDS011;45649;53.014;6.600;2022-08-19T13:07:54;6.80;;;5.97;;
59770;SDS011;45649;53.014;6.600;2022-08-19T13:10:22;6.77;;;6.17;;
59770;SDS011;45649;53.014;6.600;2022-08-19T13:12:50;6.50;;;5.90;;
59770;SDS011;45649;53.014;6.600;2022-08-19T13:15:17;5.80;;;5.30;;
59770;SDS011;45649;53.014;6.600;2022-08-19T13:17:46;6.00;;;5.50;;
59770;SDS011;45649;53.014;6.600;2022-08-19T13:20:16;6.27;;;5.67;;
59770;SDS011;45649;53.014;6.600;2022-08-19T13:22:44;7.67;;;5.93;;
59770;SDS011;45649;53.014;6.600;2022-08-19T13:25:11;8.03;;;7.23;;
59770;SDS011;45649;53.014;6.600;2022-08-19T13:27:39;7.70;;;6.90;;
59770;SDS011;45649;53.014;6.600;2022-08-19T13:30:06;6.97;;;6.37;;
59770;SDS011;45649;53.014;6.600;2022-08-19T13:32:51;7.20;;;6.50;;
59770;SDS011;45649;53.014;6.600;2022-08-19T13:35:36;8.90;;;8.10;;
59770;SDS011;45649;53.014;6.600;2022-08-19T13:38:12;12.43;;;11.10;;
59770;SDS011;45649;53.014;6.600;2022-08-19T13:40:39;16.57;;;13.03;;
59770;SDS011;45649;53.014;6.600;2022-08-19T13:43:06;14.73;;;13.13;;
59770;SDS011;45649;53.014;6.600;2022-08-19T13:45:32;23.70;;;20.03;;
59770;SDS011;45649;53.014;6.600;2022-08-19T13:47:59;23.70;;;18.33;;
59770;SDS011;45649;53.014;6.600;2022-08-19T13:50:28;20.40;;;16.50;;
59770;SDS011;45649;53.014;6.600;2022-08-19T13:52:58;22.47;;;17.77;;
59770;SDS011;45649;53.014;6.600;2022-08-19T13:55:25;20.13;;;17.60;;
59770;SDS011;45649;53.014;6.600;2022-08-19T13:57:55;23.07;;;16.63;;
59770;SDS011;45649;53.014;6.600;2022-08-19T14:00:24;23.50;;;17.80;;
59770;SDS011;45649;53.014;6.600;2022-08-19T14:02:52;23.77;;;19.03;;
59770;SDS011;45649;53.014;6.600;2022-08-19T14:05:22;23.77;;;18.43;;
59770;SDS011;45649;53.014;6.600;2022-08-19T14:07:49;21.30;;;17.93;;
59770;SDS011;45649;53.014;6.600;2022-08-19T14:10:15;20.13;;;16.47;;
59770;SDS011;45649;53.014;6.600;2022-08-19T14:12:42;20.07;;;17.93;;
59770;SDS011;45649;53.014;6.600;2022-08-19T14:15:09;20.40;;;16.03;;
59770;SDS011;45649;53.014;6.600;2022-08-19T14:17:37;16.80;;;14.47;;
59770;SDS011;45649;53.014;6.600;2022-08-19T14:20:05;17.87;;;14.90;;
59770;SDS011;45649;53.014;6.600;2022-08-19T14:22:34;15.57;;;13.93;;
59770;SDS011;45649;53.014;6.600;2022-08-19T14:25:05;17.23;;;14.57;;
59770;SDS011;45649;53.014;6.600;2022-08-19T14:27:33;15.23;;;13.63;;
59770;SDS011;45649;53.014;6.600;2022-08-19T14:30:04;14.77;;;13.17;;
59770;SDS011;45649;53.014;6.600;2022-08-19T14:32:32;15.27;;;13.07;;
59770;SDS011;45649;53.014;6.600;2022-08-19T14:35:00;14.90;;;11.63;;
59770;SDS011;45649;53.014;6.600;2022-08-19T14:37:29;11.93;;;9.73;;
59770;SDS011;45649;53.014;6.600;2022-08-19T14:39:55;14.57;;;11.43;;
59770;SDS011;45649;53.014;6.600;2022-08-19T14:42:21;14.30;;;12.47;;
59770;SDS011;45649;53.014;6.600;2022-08-19T14:44:46;16.53;;;13.27;;
59770;SDS011;45649;53.014;6.600;2022-08-19T14:47:12;17.10;;;12.87;;
59770;SDS011;45649;53.014;6.600;2022-08-19T14:49:38;15.87;;;12.47;;
59770;SDS011;45649;53.014;6.600;2022-08-19T14:52:04;17.50;;;14.07;;
59770;SDS011;45649;53.014;6.600;2022-08-19T14:54:30;18.90;;;14.10;;
59770;SDS011;45649;53.014;6.600;2022-08-19T14:56:56;17.23;;;14.40;;
59770;SDS011;45649;53.014;6.600;2022-08-19T14:59:22;16.60;;;12.73;;
59770;SDS011;45649;53.014;6.600;2022-08-19T15:01:48;11.57;;;9.73;;
59770;SDS011;45649;53.014;6.600;2022-08-19T15:04:14;11.07;;;8.90;;
59770;SDS011;45649;53.014;6.600;2022-08-19T15:06:40;11.23;;;8.60;;
59770;SDS011;45649;53.014;6.600;2022-08-19T15:09:07;10.60;;;9.50;;
59770;SDS011;45649;53.014;6.600;2022-08-19T15:11:33;8.97;;;7.73;;